createdAt,value
2022-12-13T00:00:27.637Z,91.35
2022-12-13T00:03:16.033Z,92.32
2022-12-13T00:06:08.807Z,86.82
2022-12-13T00:08:56.044Z,85.70
2022-12-13T00:11:44.696Z,89.78
2022-12-13T00:14:30.313Z,88.20
2022-12-13T00:17:15.785Z,85.75
2022-12-13T00:20:07.679Z,92.50
2022-12-13T00:22:53.437Z,93.55
2022-12-13T00:25:44.270Z,96.32
2022-12-13T00:28:32.977Z,92.68
2022-12-13T00:31:53.391Z,99.90
2022-12-13T00:34:25.332Z,91.07
2022-12-13T00:37:10.782Z,90.32
2022-12-13T00:39:58.669Z,98.13
2022-12-13T00:42:44.225Z,90.68
2022-12-13T00:45:29.432Z,93.07
2022-12-13T00:48:15.018Z,89.18
2022-12-13T00:51:00.530Z,97.40
2022-12-13T00:53:45.890Z,97.70
2022-12-13T00:56:34.562Z,93.95
2022-12-13T00:59:22.622Z,92.85
2022-12-13T01:02:11.063Z,106.68
2022-12-13T01:04:56.717Z,91.10
2022-12-13T01:07:45.389Z,93.05
2022-12-13T01:10:30.791Z,103.70
2022-12-13T01:13:16.446Z,98.45
2022-12-13T01:16:06.778Z,97.55
2022-12-13T01:18:52.798Z,89.85
2022-12-13T01:21:38.369Z,95.95
2022-12-13T01:24:24.786Z,98.30
2022-12-13T01:27:10.897Z,100.78
2022-12-13T01:29:56.118Z,103.72
2022-12-13T01:32:41.750Z,92.22
2022-12-13T01:35:27.263Z,90.18
2022-12-13T01:38:15.660Z,91.30
2022-12-13T01:41:02.065Z,95.72
2022-12-13T01:44:41.223Z,100.30
2022-12-13T01:47:44.010Z,94.40
2022-12-13T01:50:37.499Z,90.78
2022-12-13T01:53:27.128Z,96.97
2022-12-13T01:56:23.557Z,100.90
2022-12-13T01:59:12.309Z,107.00
2022-12-13T02:02:00.722Z,96.82
2022-12-13T02:05:05.686Z,96.93
2022-12-13T02:07:51.939Z,107.13
2022-12-13T02:10:37.696Z,90.95
2022-12-13T02:13:23.142Z,102.13
2022-12-13T02:16:31.384Z,97.65
2022-12-13T02:19:58.920Z,106.05
2022-12-13T02:22:50.171Z,96.43
2022-12-13T02:26:15.886Z,98.53
2022-12-13T02:29:30.949Z,99.10
2022-12-13T02:32:19.953Z,102.45
2022-12-13T02:35:27.203Z,104.43
2022-12-13T02:38:29.385Z,103.57
2022-12-13T02:41:36.590Z,105.30
2022-12-13T02:44:30.841Z,92.78
2022-12-13T02:47:22.769Z,116.43
2022-12-13T02:50:09.539Z,103.88
2022-12-13T02:52:55.695Z,108.47
2022-12-13T02:55:41.208Z,118.78
2022-12-13T02:58:35.259Z,111.00
2022-12-13T03:01:28.550Z,107.93
2022-12-13T03:04:21.037Z,115.97
2022-12-13T03:07:28.472Z,107.60
2022-12-13T03:10:21.918Z,113.32
2022-12-13T03:13:32.030Z,116.47
2022-12-13T03:16:38.490Z,115.80
2022-12-13T03:19:29.465Z,109.32
2022-12-13T03:22:15.082Z,100.53
2022-12-13T03:25:01.196Z,111.30
2022-12-13T03:27:46.942Z,124.15
2022-12-13T03:30:33.591Z,119.38
2022-12-13T03:33:19.167Z,126.25
2022-12-13T03:36:05.914Z,124.75
2022-12-13T03:38:53.720Z,130.18
2022-12-13T03:41:39.226Z,118.22
2022-12-13T03:44:24.580Z,114.75
2022-12-13T03:47:17.384Z,121.35
2022-12-13T03:50:25.487Z,124.80
2022-12-13T03:56:13.398Z,134.40
2022-12-13T03:58:59.336Z,130.13
2022-12-13T04:01:44.763Z,137.93
2022-12-13T04:04:29.944Z,143.05
2022-12-13T04:07:22.520Z,145.90
2022-12-13T04:10:25.615Z,123.45
2022-12-13T04:13:30.238Z,131.60
2022-12-13T04:16:15.607Z,134.70
2022-12-13T04:19:01.022Z,140.40
2022-12-13T04:21:47.779Z,129.07
2022-12-13T04:24:32.930Z,121.60
2022-12-13T04:27:19.234Z,133.55
2022-12-13T04:30:29.710Z,125.97
2022-12-13T04:33:14.945Z,97.82
2022-12-13T04:36:00.465Z,91.35
2022-12-13T04:38:46.869Z,84.25
2022-12-13T04:41:36.797Z,87.55
2022-12-13T04:44:27.614Z,86.95
2022-12-13T04:47:15.706Z,88.55
2022-12-13T04:50:02.783Z,85.32
2022-12-13T04:52:48.197Z,91.93
2022-12-13T04:55:36.971Z,88.60
2022-12-13T04:58:23.220Z,80.15
2022-12-13T05:01:11.249Z,80.90
2022-12-13T05:03:56.785Z,81.35
2022-12-13T05:06:42.810Z,92.00
2022-12-13T05:09:31.278Z,92.70
2022-12-13T05:12:22.416Z,88.55
2022-12-13T05:15:09.138Z,85.78
2022-12-13T05:17:54.714Z,79.90
2022-12-13T05:20:40.178Z,79.45
2022-12-13T05:23:25.698Z,85.43
2022-12-13T05:26:11.405Z,88.07
2022-12-13T05:28:57.302Z,86.68
2022-12-13T05:31:42.948Z,91.38
2022-12-13T05:34:28.158Z,82.95
2022-12-13T05:37:14.646Z,86.47
2022-12-13T05:40:00.271Z,92.32
2022-12-13T05:42:45.735Z,80.78
2022-12-13T05:45:36.816Z,82.60
2022-12-13T05:48:24.486Z,79.07
2022-12-13T05:51:12.035Z,86.97
2022-12-13T05:54:00.848Z,81.97
2022-12-13T05:56:48.994Z,73.57
2022-12-13T05:59:34.703Z,72.10
2022-12-13T06:02:21.640Z,80.40
2022-12-13T06:05:08.003Z,82.50
2022-12-13T06:07:57.607Z,76.10
2022-12-13T06:10:43.847Z,75.80
2022-12-13T06:13:32.381Z,81.20
2022-12-13T06:16:24.055Z,73.30
2022-12-13T06:19:10.013Z,79.25
2022-12-13T06:21:55.794Z,82.88
2022-12-13T06:24:41.604Z,82.85
2022-12-13T06:27:27.633Z,79.53
2022-12-13T06:30:13.553Z,77.80
2022-12-13T06:32:58.811Z,71.45
2022-12-13T06:35:44.415Z,74.88
2022-12-13T06:38:31.959Z,77.43
2022-12-13T06:41:21.108Z,73.93
2022-12-13T06:44:07.876Z,76.15
2022-12-13T06:47:11.129Z,76.22
2022-12-13T06:49:57.406Z,80.28
2022-12-13T06:58:42.534Z,74.63
2022-12-13T07:01:37.417Z,76.18
2022-12-13T07:04:29.519Z,71.78
2022-12-13T07:07:15.673Z,68.20
2022-12-13T07:10:01.344Z,74.53
2022-12-13T07:12:46.683Z,74.45
2022-12-13T07:15:34.132Z,75.05
2022-12-13T07:18:20.122Z,74.80
2022-12-13T07:21:21.384Z,77.00
2022-12-13T07:24:08.266Z,70.22
2022-12-13T07:26:54.046Z,67.60
2022-12-13T07:29:42.768Z,67.80
2022-12-13T07:32:28.471Z,77.57
2022-12-13T07:35:14.286Z,64.90
2022-12-13T07:37:59.855Z,73.68
2022-12-13T07:40:46.316Z,71.32
2022-12-13T07:43:35.126Z,76.53
2022-12-13T07:46:31.925Z,65.70
2022-12-13T07:49:19.363Z,73.78
2022-12-13T07:52:11.235Z,69.05
2022-12-13T07:54:57.006Z,79.60
2022-12-13T07:57:42.755Z,78.68
2022-12-13T08:00:31.314Z,84.80
2022-12-13T08:03:24.914Z,78.85
2022-12-13T08:06:12.091Z,79.72
2022-12-13T08:08:58.192Z,73.55
2022-12-13T08:11:43.394Z,76.95
2022-12-13T08:14:29.302Z,82.50
2022-12-13T08:17:14.770Z,80.78
2022-12-13T08:20:00.315Z,80.13
2022-12-13T08:22:49.562Z,82.35
2022-12-13T08:25:35.604Z,81.32
2022-12-13T08:28:21.023Z,81.85
2022-12-13T08:31:12.550Z,89.72
2022-12-13T08:33:57.950Z,78.75
2022-12-13T08:36:43.341Z,83.65
2022-12-13T08:39:29.085Z,82.60
2022-12-13T08:42:21.198Z,84.30
2022-12-13T08:45:07.265Z,87.85
2022-12-13T08:47:52.518Z,88.43
2022-12-13T08:50:40.852Z,98.15
2022-12-13T08:53:28.117Z,99.55
2022-12-13T08:56:14.049Z,87.53
2022-12-13T08:59:01.229Z,92.65
2022-12-13T09:01:47.514Z,94.95
2022-12-13T09:04:42.198Z,94.57
2022-12-13T09:07:30.804Z,90.00
2022-12-13T09:10:26.721Z,83.22
2022-12-13T09:13:13.320Z,91.03
2022-12-13T09:16:23.878Z,91.43
2022-12-13T09:19:25.258Z,81.82
2022-12-13T09:22:16.675Z,93.30
2022-12-13T09:25:23.965Z,82.32
2022-12-13T09:28:09.867Z,83.43
2022-12-13T09:30:56.174Z,81.65
2022-12-13T09:33:44.027Z,77.47
2022-12-13T09:36:29.518Z,81.55
2022-12-13T09:39:18.286Z,82.90
2022-12-13T09:42:10.528Z,83.72
2022-12-13T09:45:22.297Z,77.78
2022-12-13T09:48:22.549Z,68.03
2022-12-13T09:51:17.112Z,76.53
2022-12-13T09:54:20.707Z,65.55
2022-12-13T09:57:15.733Z,74.40
2022-12-13T10:00:21.321Z,70.65
2022-12-13T10:03:11.814Z,69.35
2022-12-13T10:05:59.633Z,63.88
2022-12-13T10:08:57.262Z,63.38
2022-12-13T10:11:53.298Z,58.92
2022-12-13T10:14:43.903Z,61.08
2022-12-13T10:17:38.401Z,60.33
2022-12-13T10:20:28.161Z,58.53
2022-12-13T10:26:24.526Z,53.38
2022-12-13T10:29:10.925Z,56.22
2022-12-13T10:32:01.986Z,50.30
2022-12-13T10:34:48.666Z,52.95
2022-12-13T10:37:38.217Z,55.60
2022-12-13T10:40:32.660Z,56.25
2022-12-13T10:43:22.867Z,55.80
2022-12-13T10:46:25.091Z,49.50
2022-12-13T10:49:20.907Z,48.72
2022-12-13T10:52:31.023Z,47.50
2022-12-13T10:55:37.512Z,45.83
2022-12-13T10:58:23.398Z,43.63
2022-12-13T11:01:20.669Z,43.85
2022-12-13T11:04:27.549Z,44.03
2022-12-13T11:07:27.464Z,43.80
2022-12-13T11:10:28.838Z,48.13
2022-12-13T11:13:29.541Z,41.10
2022-12-13T11:16:30.567Z,39.92
2022-12-13T11:19:26.455Z,45.03
2022-12-13T11:22:22.046Z,42.67
2022-12-13T11:25:40.017Z,41.75
2022-12-13T11:28:49.236Z,42.28
2022-12-13T11:31:56.714Z,43.80
2022-12-13T11:34:57.319Z,41.75
2022-12-13T11:38:02.613Z,42.60
2022-12-13T11:40:59.956Z,43.40
2022-12-13T11:44:01.257Z,43.17
2022-12-13T11:46:51.781Z,41.45
2022-12-13T11:49:43.036Z,43.13
2022-12-13T11:52:40.890Z,45.53
2022-12-13T11:55:40.446Z,40.50
2022-12-13T11:59:02.008Z,38.60
2022-12-13T12:01:51.877Z,37.30
2022-12-13T12:04:59.642Z,37.55
2022-12-13T12:08:31.337Z,37.20
2022-12-13T12:11:16.796Z,33.33
2022-12-13T12:14:11.064Z,36.53
2022-12-13T12:16:58.802Z,31.98
2022-12-13T12:19:49.508Z,32.97
2022-12-13T12:22:46.466Z,35.95
2022-12-13T12:26:10.434Z,32.65
2022-12-13T12:29:17.798Z,30.27
2022-12-13T12:32:20.546Z,35.90
2022-12-13T12:35:27.072Z,43.70
2022-12-13T12:38:32.689Z,45.50
2022-12-13T12:41:51.766Z,38.90
2022-12-13T12:45:26.996Z,38.45
2022-12-13T12:51:47.172Z,32.13
2022-12-13T12:54:38.293Z,32.13
2022-12-13T12:58:02.573Z,31.25
2022-12-13T13:01:07.343Z,33.35
2022-12-13T13:04:01.691Z,33.50
2022-12-13T13:06:53.335Z,32.58
2022-12-13T13:09:50.865Z,35.05
2022-12-13T13:12:43.127Z,33.30
2022-12-13T13:15:32.010Z,34.63
2022-12-13T13:18:50.721Z,35.17
2022-12-13T13:21:45.321Z,33.92
2022-12-13T13:24:32.384Z,35.78
2022-12-13T13:27:30.252Z,34.33
2022-12-13T13:31:08.993Z,36.25
2022-12-13T13:33:57.666Z,35.83
2022-12-13T13:36:43.209Z,36.28
2022-12-13T13:39:28.640Z,37.13
2022-12-13T13:42:16.584Z,33.50
2022-12-13T13:45:22.596Z,37.40
2022-12-13T13:48:26.890Z,35.70
2022-12-13T13:51:31.099Z,37.97
2022-12-13T13:54:48.310Z,27.85
2022-12-13T13:58:09.876Z,37.08
2022-12-13T14:01:17.153Z,42.80
2022-12-13T14:04:43.340Z,44.47
2022-12-13T14:07:50.351Z,44.17
2022-12-13T14:11:00.483Z,40.45
2022-12-13T14:14:21.724Z,41.67
2022-12-13T14:17:21.421Z,44.28
2022-12-13T14:20:20.100Z,40.80
2022-12-13T14:23:21.529Z,41.25
2022-12-13T14:26:40.996Z,41.28
2022-12-13T14:29:48.337Z,47.95
2022-12-13T14:32:46.217Z,49.63
2022-12-13T14:35:32.869Z,42.65
2022-12-13T14:38:25.226Z,41.42
2022-12-13T14:41:19.898Z,41.67
2022-12-13T14:44:23.216Z,43.70
2022-12-13T14:47:11.502Z,43.03
2022-12-13T14:49:56.818Z,43.33
2022-12-13T14:52:44.121Z,43.15
2022-12-13T14:55:35.614Z,43.05
2022-12-13T14:58:22.162Z,44.35
2022-12-13T15:01:29.647Z,48.22
2022-12-13T15:04:24.969Z,46.53
2022-12-13T15:07:32.591Z,49.92
2022-12-13T15:10:28.619Z,50.50
2022-12-13T15:13:25.191Z,48.17
2022-12-13T15:16:28.488Z,52.00
2022-12-13T15:19:31.324Z,48.05
2022-12-13T15:22:22.167Z,57.97
2022-12-13T15:25:24.163Z,54.03
2022-12-13T15:28:21.486Z,52.30
2022-12-13T15:31:09.118Z,52.50
2022-12-13T15:34:01.231Z,54.58
2022-12-13T15:36:47.126Z,54.03
2022-12-13T15:39:38.785Z,52.63
2022-12-13T15:42:38.276Z,52.10
2022-12-13T15:45:30.469Z,60.20
2022-12-13T15:48:25.985Z,53.63
2022-12-13T15:51:28.886Z,60.33
2022-12-13T15:54:21.772Z,51.70
2022-12-13T15:57:22.818Z,64.78
2022-12-13T16:00:17.438Z,62.35
2022-12-13T16:03:19.664Z,62.60
2022-12-13T16:06:06.502Z,60.22
2022-12-13T16:08:58.707Z,61.20
2022-12-13T16:11:51.185Z,61.95
2022-12-13T16:14:49.587Z,62.45
2022-12-13T16:17:35.650Z,58.28
2022-12-13T16:20:22.649Z,57.10
2022-12-13T16:23:08.795Z,60.65
2022-12-13T16:26:04.286Z,62.03
2022-12-13T16:28:54.535Z,64.20
2022-12-13T16:31:39.884Z,62.63
2022-12-13T16:34:26.368Z,57.85
2022-12-13T16:37:26.281Z,62.80
2022-12-13T16:40:33.382Z,69.25
2022-12-13T16:43:21.332Z,60.08
2022-12-13T16:47:12.653Z,65.35
2022-12-13T16:49:24.857Z,61.70
2022-12-13T16:52:10.886Z,59.75
2022-12-13T16:55:00.454Z,60.00
2022-12-13T16:57:56.159Z,62.03
2022-12-13T17:00:42.683Z,60.67
2022-12-13T17:03:28.611Z,56.20
2022-12-13T17:06:19.274Z,58.60
2022-12-13T17:09:05.006Z,63.25
2022-12-13T17:11:50.573Z,69.65
2022-12-13T17:14:35.984Z,61.53
2022-12-13T17:17:21.324Z,74.28
2022-12-13T17:20:08.766Z,65.00
2022-12-13T17:22:58.435Z,62.17
2022-12-13T17:25:43.945Z,68.10
2022-12-13T17:28:29.640Z,67.63
2022-12-13T17:31:16.267Z,69.88
2022-12-13T17:34:04.564Z,57.75
2022-12-13T17:36:50.103Z,64.82
2022-12-13T17:39:35.738Z,63.40
2022-12-13T17:42:21.437Z,67.47
2022-12-13T17:45:07.407Z,66.75
2022-12-13T17:47:52.938Z,64.30
2022-12-13T17:50:38.726Z,68.10
2022-12-13T17:53:25.030Z,78.82
2022-12-13T17:56:13.065Z,72.65
2022-12-13T17:58:58.739Z,70.60
2022-12-13T18:01:45.014Z,74.28
2022-12-13T18:04:30.794Z,72.38
2022-12-13T18:07:17.177Z,62.20
2022-12-13T18:10:03.055Z,58.42
2022-12-13T18:12:50.167Z,63.92
2022-12-13T18:15:35.953Z,64.18
2022-12-13T18:18:22.687Z,64.13
2022-12-13T18:21:14.744Z,62.55
2022-12-13T18:24:03.338Z,64.88
2022-12-13T18:26:49.031Z,62.15
2022-12-13T18:29:35.129Z,66.43
2022-12-13T18:32:21.004Z,62.38
2022-12-13T18:35:06.778Z,66.20
2022-12-13T18:37:52.302Z,63.35
2022-12-13T18:40:42.022Z,57.25
2022-12-13T18:43:27.534Z,59.53
2022-12-13T18:46:14.549Z,61.13
2022-12-13T18:49:05.528Z,61.60
2022-12-13T18:51:50.907Z,63.28
2022-12-13T18:54:36.541Z,61.97
2022-12-13T18:57:22.034Z,61.65
2022-12-13T19:00:08.457Z,72.22
2022-12-13T19:02:56.618Z,63.85
2022-12-13T19:05:42.017Z,63.30
2022-12-13T19:08:28.760Z,57.42
2022-12-13T19:11:14.439Z,67.38
2022-12-13T19:14:05.627Z,56.78
2022-12-13T19:16:51.195Z,60.92
2022-12-13T19:19:37.075Z,67.70
2022-12-13T19:22:23.333Z,56.88
2022-12-13T19:25:09.706Z,60.85
2022-12-13T19:27:56.697Z,57.72
2022-12-13T19:30:44.791Z,58.05
2022-12-13T19:33:35.532Z,54.85
2022-12-13T19:36:27.017Z,58.00
2022-12-13T19:39:13.246Z,61.15
2022-12-13T19:41:58.642Z,65.90
2022-12-13T19:44:43.957Z,59.65
2022-12-13T19:47:29.539Z,64.72
2022-12-13T19:50:15.354Z,60.63
2022-12-13T19:53:00.509Z,57.38
2022-12-13T19:55:52.355Z,66.57
2022-12-13T19:58:38.508Z,62.42
2022-12-13T20:01:24.131Z,65.38
2022-12-13T20:04:10.888Z,55.42
2022-12-13T20:06:57.141Z,59.78
2022-12-13T20:09:42.875Z,63.00
2022-12-13T20:12:29.658Z,53.83
2022-12-13T20:15:15.294Z,62.10
2022-12-13T20:18:00.697Z,56.05
2022-12-13T20:21:10.534Z,63.15
2022-12-13T20:23:53.054Z,59.75
2022-12-13T20:26:39.198Z,59.97
2022-12-13T20:29:24.939Z,60.33
2022-12-13T20:32:13.490Z,55.85
2022-12-13T20:35:00.111Z,58.88
2022-12-13T20:37:48.338Z,64.32
2022-12-13T20:40:34.547Z,53.15
2022-12-13T20:43:20.035Z,53.65
2022-12-13T20:46:11.164Z,55.55
2022-12-13T20:48:58.130Z,52.58
2022-12-13T20:51:43.712Z,54.85
2022-12-13T20:54:29.306Z,50.40
2022-12-13T20:57:14.875Z,56.72
2022-12-13T21:00:00.730Z,62.17
2022-12-13T21:02:48.698Z,49.78
2022-12-13T21:05:36.937Z,49.10
2022-12-13T21:08:43.725Z,48.65
2022-12-13T21:11:33.350Z,52.13
2022-12-13T21:14:39.299Z,47.40
2022-12-13T21:17:24.558Z,51.65
2022-12-13T21:20:10.388Z,53.90
2022-12-13T21:22:58.417Z,49.88
2022-12-13T21:25:51.767Z,52.60
2022-12-13T21:28:39.647Z,56.22
2022-12-13T21:31:25.823Z,45.45
2022-12-13T21:34:11.829Z,49.92
2022-12-13T21:36:57.514Z,52.63
2022-12-13T21:39:42.789Z,53.97
2022-12-13T21:42:28.507Z,49.42
2022-12-13T21:45:13.869Z,49.60
2022-12-13T21:47:59.414Z,52.80
2022-12-13T21:50:52.716Z,47.90
2022-12-13T21:53:38.934Z,49.05
2022-12-13T21:56:46.963Z,46.50
2022-12-13T21:59:32.502Z,48.95
2022-12-13T22:02:19.229Z,48.10
2022-12-13T22:05:05.526Z,41.63
2022-12-13T22:07:54.289Z,42.45
2022-12-13T22:10:59.566Z,44.67
2022-12-13T22:13:44.846Z,44.22
2022-12-13T22:16:34.686Z,39.45
2022-12-13T22:19:20.246Z,42.85
2022-12-13T22:22:06.746Z,41.00
2022-12-13T22:24:54.195Z,46.22
2022-12-13T22:27:43.250Z,45.42
2022-12-13T22:30:28.537Z,42.05
2022-12-13T22:33:14.704Z,46.50
2022-12-13T22:36:03.849Z,42.00
2022-12-13T22:38:49.975Z,41.78
2022-12-13T22:41:35.670Z,38.40
2022-12-13T22:44:21.144Z,38.67
2022-12-13T22:47:09.198Z,38.75
2022-12-13T22:49:55.630Z,46.85
2022-12-13T22:52:41.157Z,40.80
2022-12-13T22:55:29.342Z,42.05
2022-12-13T22:58:14.753Z,46.65
2022-12-13T23:01:08.366Z,40.05
2022-12-13T23:03:54.742Z,40.80
2022-12-13T23:06:41.116Z,37.75
2022-12-13T23:09:28.954Z,39.45
2022-12-13T23:12:35.942Z,43.97
2022-12-13T23:15:21.122Z,37.20
2022-12-13T23:18:09.724Z,36.00
2022-12-13T23:20:55.202Z,36.78
2022-12-13T23:23:40.849Z,37.72
2022-12-13T23:26:29.763Z,37.40
2022-12-13T23:29:15.065Z,36.60
2022-12-13T23:32:00.766Z,37.08
2022-12-13T23:34:46.547Z,40.47
2022-12-13T23:37:35.111Z,38.67
2022-12-13T23:40:20.299Z,33.00
2022-12-13T23:43:05.734Z,34.35
2022-12-13T23:45:51.371Z,31.20
2022-12-13T23:48:37.015Z,33.70
2022-12-13T23:51:22.493Z,35.47
2022-12-13T23:54:07.651Z,35.72
2022-12-13T23:56:53.688Z,38.70
2022-12-13T23:59:39.563Z,38.15
